sensor_id;sensor_type;location;lat;lon;timestamp;temperature;humidity
81313;DHT22;70780;52.722;5.724;2023-08-24T11:17:35;24.60;63.20
81313;DHT22;70780;52.722;5.724;2023-08-24T11:20:05;24.60;63.20
81313;DHT22;70780;52.722;5.724;2023-08-24T11:22:35;24.60;63.10
81313;DHT22;70780;52.722;5.724;2023-08-24T11:25:06;24.70;63.50
81313;DHT22;70780;52.722;5.724;2023-08-24T11:27:41;24.70;63.80
81313;DHT22;70780;52.722;5.724;2023-08-24T11:30:12;24.70;64.00
81313;DHT22;70780;52.722;5.724;2023-08-24T11:32:51;24.70;64.00
81313;DHT22;70780;52.722;5.724;2023-08-24T11:35:21;24.70;64.00
81313;DHT22;70780;52.722;5.724;2023-08-24T11:37:52;24.70;64.00
81313;DHT22;70780;52.722;5.724;2023-08-24T11:40:21;24.70;63.90
81313;DHT22;70780;52.722;5.724;2023-08-24T11:42:55;24.70;63.90
81313;DHT22;70780;52.722;5.724;2023-08-24T11:45:30;24.70;63.90
81313;DHT22;70780;52.722;5.724;2023-08-24T11:48:03;24.70;63.80
81313;DHT22;70780;52.722;5.724;2023-08-24T11:50:33;24.80;63.80
81313;DHT22;70780;52.722;5.724;2023-08-24T11:53:06;24.80;63.80
81313;DHT22;70780;52.722;5.724;2023-08-24T11:55:39;24.80;63.70
81313;DHT22;70780;52.722;5.724;2023-08-24T11:58:16;24.80;63.70
81313;DHT22;70780;52.722;5.724;2023-08-24T12:00:46;24.80;63.70
81313;DHT22;70780;52.722;5.724;2023-08-24T12:03:18;24.80;63.70
81313;DHT22;70780;52.722;5.724;2023-08-24T12:05:47;24.80;63.60
81313;DHT22;70780;52.722;5.724;2023-08-24T15:55:50;24.90;64.80
81313;DHT22;70780;52.722;5.724;2023-08-24T15:58:19;24.90;65.00
81313;DHT22;70780;52.722;5.724;2023-08-24T16:00:50;24.80;65.10
81313;DHT22;70780;52.722;5.724;2023-08-24T16:03:20;24.80;65.30
81313;DHT22;70780;52.722;5.724;2023-08-24T16:05:49;24.80;65.40
81313;DHT22;70780;52.722;5.724;2023-08-24T16:08:18;24.80;65.50
81313;DHT22;70780;52.722;5.724;2023-08-24T16:10:50;24.70;65.50
81313;DHT22;70780;52.722;5.724;2023-08-24T16:13:19;24.70;65.60
81313;DHT22;70780;52.722;5.724;2023-08-24T16:15:49;24.70;65.60
81313;DHT22;70780;52.722;5.724;2023-08-24T16:18:22;24.70;65.60
81313;DHT22;70780;52.722;5.724;2023-08-24T16:20:52;24.70;65.60
81313;DHT22;70780;52.722;5.724;2023-08-24T16:23:21;24.70;65.60
81313;DHT22;70780;52.722;5.724;2023-08-24T16:25:53;24.70;65.60
81313;DHT22;70780;52.722;5.724;2023-08-24T16:28:24;24.70;65.60
81313;DHT22;70780;52.722;5.724;2023-08-24T16:30:53;24.70;65.60
81313;DHT22;70780;52.722;5.724;2023-08-24T16:33:22;24.70;65.50
81313;DHT22;70780;52.722;5.724;2023-08-24T16:35:52;24.70;65.60
81313;DHT22;70780;52.722;5.724;2023-08-24T16:38:21;24.70;65.60
81313;DHT22;70780;52.722;5.724;2023-08-24T16:40:53;24.70;65.70
81313;DHT22;70780;52.722;5.724;2023-08-24T16:43:23;24.70;65.80
81313;DHT22;70780;52.722;5.724;2023-08-24T16:45:52;24.70;65.70
81313;DHT22;70780;52.722;5.724;2023-08-24T16:48:21;24.70;65.80
81313;DHT22;70780;52.722;5.724;2023-08-24T16:50:51;24.70;65.90
81313;DHT22;70780;52.722;5.724;2023-08-24T16:53:21;24.70;66.00
81313;DHT22;70780;52.722;5.724;2023-08-24T16:55:54;24.70;66.00
81313;DHT22;70780;52.722;5.724;2023-08-24T16:58:23;24.70;66.10
81313;DHT22;70780;52.722;5.724;2023-08-24T17:00:52;24.70;66.10
81313;DHT22;70780;52.722;5.724;2023-08-24T17:03:22;24.70;66.20
81313;DHT22;70780;52.722;5.724;2023-08-24T17:05:51;24.70;66.30
81313;DHT22;70780;52.722;5.724;2023-08-24T17:08:20;24.70;66.40
81313;DHT22;70780;52.722;5.724;2023-08-24T17:10:50;24.70;66.50
81313;DHT22;70780;52.722;5.724;2023-08-24T17:13:21;24.70;66.50
81313;DHT22;70780;52.722;5.724;2023-08-24T17:15:51;24.60;66.70
81313;DHT22;70780;52.722;5.724;2023-08-24T17:18:20;24.60;66.80
81313;DHT22;70780;52.722;5.724;2023-08-24T17:20:49;24.60;66.90
81313;DHT22;70780;52.722;5.724;2023-08-24T17:23:19;24.70;67.10
81313;DHT22;70780;52.722;5.724;2023-08-24T17:25:48;24.60;67.10
81313;DHT22;70780;52.722;5.724;2023-08-24T17:28:17;24.60;67.10
81313;DHT22;70780;52.722;5.724;2023-08-24T17:30:49;24.60;67.10
81313;DHT22;70780;52.722;5.724;2023-08-24T17:33:19;24.60;67.00
81313;DHT22;70780;52.722;5.724;2023-08-24T17:35:49;24.60;66.90
81313;DHT22;70780;52.722;5.724;2023-08-24T17:38:23;24.60;66.80
